Arden, New York
Current Conditions -  °F | °C
As of 7:45 AM on Sunday 23 Nov 2014 (Local Time) from KSWF Reporting Station
Broken Clouds Broken Clouds  
Wind Chill: 35°   Ceiling: 6000
Heat Index: 41°   Visibility: 20mi
Dew Point: 21°   Wind: 9mph
Humidity: 45%   Direction: 250°WSW
Pressure: 30.18"   Gusts: NA
Location:  41.27°N, 74.15°W
Report Text: KSWF 231245Z 25008KT 20SM BKN060 05/M06 A3018
Loading
Personal Weather Stations






























Interactive Weather Map New forecast layout! Learn more

10-Day Weather Forecast

Advertisements
Track Severe Weather on mobile